Main page
METAR-TAF:

METAR-TAF

Airports :

Katowice International Airport

Katowice, Poland

latitude: 50-28-27N, longitude: 019-04-48E, elevation: 284 m

Current weather observation

The report was made 19 minutes ago, at 23:30 UTC
Wind 3 kt from the South/Southeast, varying between East/Southeast and South
Temperature 12°C
Humidity 94%
Pressure 1021 hPa
Visibility 10 km or more
Shallow fog

METAR: EPKT 212330Z 15003KT 120V180 9999 MIFG NSC 12/11 Q1021

Time: 01:49 (23:49 UTC)

Forecast

The report was made 19 minutes ago, at 23:30 UTC
Forecast valid from 22 at 00 UTC to 22 at 24 UTC
Wind 5 kt from the East
Visibility 10 km or more
no clouds below 1500 m and no cumulonimbus

TAF: EPKT 212330Z 2200/2224 09005KT CAVOK

Weather observations and forecasts of more than 4000 airports (METAR and TAF reports).

The available stations are represented by yellow and red dots on the map.

Hover mouse over dot to see the name of the station.

Then click to see weather observations and forecasts.

To change the map : click on the green buttons with a black cross to zoom in, on the green button with a dash to zoom out, or on the green arrows for adjacent maps.


METAR-TAF: